createdAt,value
2018-07-11T00:01:41.439Z,4.80
2018-07-11T00:04:10.329Z,5.73
2018-07-11T00:06:39.253Z,5.70
2018-07-11T00:09:07.884Z,5.40
2018-07-11T00:11:37.944Z,4.87
2018-07-11T00:14:09.020Z,5.60
2018-07-11T00:16:37.146Z,5.63
2018-07-11T00:19:10.792Z,5.60
2018-07-11T00:21:39.239Z,5.87
2018-07-11T00:24:09.860Z,6.83
2018-07-11T00:26:39.134Z,8.20
2018-07-11T00:29:07.153Z,5.50
2018-07-11T00:31:35.152Z,5.70
2018-07-11T00:34:03.157Z,5.77
2018-07-11T00:36:31.894Z,5.87
2018-07-11T00:38:59.969Z,5.40
2018-07-11T00:41:27.997Z,6.20
2018-07-11T00:43:55.988Z,5.20
2018-07-11T00:46:23.974Z,5.53
2018-07-11T00:48:51.986Z,5.70
2018-07-11T00:51:19.993Z,5.00
2018-07-11T00:53:48.467Z,5.77
2018-07-11T00:56:16.471Z,5.93
2018-07-11T00:58:46.545Z,5.60
2018-07-11T01:01:15.874Z,6.00
2018-07-11T01:04:00.332Z,6.27
2018-07-11T01:06:28.736Z,5.47
2018-07-11T01:08:57.959Z,5.20
2018-07-11T01:11:26.457Z,4.80
2018-07-11T01:13:54.478Z,5.00
2018-07-11T01:16:22.946Z,5.57
2018-07-11T01:18:56.648Z,6.57
2018-07-11T01:21:27.351Z,6.00
2018-07-11T01:23:55.367Z,6.03
2018-07-11T01:26:24.640Z,6.10
2018-07-11T01:28:52.790Z,7.37
2018-07-11T01:31:21.061Z,6.70
2018-07-11T01:33:49.579Z,6.07
2018-07-11T01:36:17.600Z,6.20
2018-07-11T01:38:45.636Z,6.10
2018-07-11T01:41:13.779Z,6.90
2018-07-11T01:43:41.954Z,7.30
2018-07-11T01:46:10.805Z,6.63
2018-07-11T01:48:38.850Z,8.10
2018-07-11T01:51:06.915Z,8.10
2018-07-11T01:53:35.189Z,7.50
2018-07-11T01:56:03.210Z,8.53
2018-07-11T01:58:31.207Z,8.23
2018-07-11T02:00:59.188Z,7.67
2018-07-11T02:03:27.244Z,7.70
2018-07-11T02:05:55.216Z,8.50
2018-07-11T02:08:23.515Z,8.47
2018-07-11T02:10:51.524Z,8.63
2018-07-11T02:13:19.495Z,8.63
2018-07-11T02:15:48.207Z,9.17
2018-07-11T02:18:17.624Z,7.93
2018-07-11T02:20:45.596Z,8.13
2018-07-11T02:23:13.598Z,7.80
2018-07-11T02:25:41.608Z,8.93
2018-07-11T02:28:09.608Z,8.83
2018-07-11T02:30:37.604Z,7.90
2018-07-11T02:33:05.646Z,8.03
2018-07-11T02:35:33.635Z,8.33
2018-07-11T02:38:01.615Z,8.43
2018-07-11T02:40:29.640Z,7.17
2018-07-11T02:42:57.611Z,9.17
2018-07-11T02:45:25.768Z,7.43
2018-07-11T02:47:53.767Z,9.23
2018-07-11T02:50:21.907Z,7.87
2018-07-11T02:52:49.921Z,9.50
2018-07-11T02:55:17.937Z,9.47
2018-07-11T02:57:45.921Z,8.60
2018-07-11T03:00:13.939Z,7.57
2018-07-11T03:02:41.960Z,8.80
2018-07-11T03:05:09.965Z,8.77
2018-07-11T03:07:37.949Z,8.20
2018-07-11T03:10:05.958Z,8.07
2018-07-11T03:12:33.964Z,8.30
2018-07-11T03:15:01.946Z,8.13
2018-07-11T03:17:30.281Z,7.77
2018-07-11T03:19:58.277Z,8.00
2018-07-11T03:22:26.247Z,7.40
2018-07-11T03:24:54.261Z,8.27
2018-07-11T03:27:22.236Z,8.00
2018-07-11T03:29:50.229Z,8.70
2018-07-11T03:32:18.240Z,8.53
2018-07-11T03:34:46.246Z,7.60
2018-07-11T03:37:14.248Z,7.50
2018-07-11T03:39:42.744Z,8.60
2018-07-11T03:42:10.893Z,8.10
2018-07-11T03:44:39.026Z,7.73
2018-07-11T03:47:07.045Z,8.40
2018-07-11T03:49:35.024Z,7.63
2018-07-11T03:52:03.008Z,7.57
2018-07-11T03:54:31.528Z,8.20
2018-07-11T03:56:59.530Z,7.33
2018-07-11T03:59:27.719Z,7.67
2018-07-11T04:01:55.770Z,7.97
2018-07-11T04:04:24.368Z,7.60
2018-07-11T04:06:52.362Z,8.53
2018-07-11T04:09:20.372Z,8.90
2018-07-11T04:11:48.460Z,7.30
2018-07-11T04:14:16.453Z,7.20
2018-07-11T04:16:44.479Z,6.73
2018-07-11T04:19:12.499Z,8.03
2018-07-11T04:21:40.501Z,7.70
2018-07-11T04:24:09.031Z,7.77
2018-07-11T04:26:37.010Z,7.83
2018-07-11T04:29:04.989Z,8.13
2018-07-11T04:31:33.012Z,8.70
2018-07-11T04:34:00.996Z,8.20
2018-07-11T04:36:28.984Z,7.30
2018-07-11T04:38:57.001Z,6.30
2018-07-11T04:41:24.980Z,8.00
2018-07-11T04:43:53.013Z,8.63
2018-07-11T04:46:21.007Z,8.20
2018-07-11T04:48:49.032Z,8.53
2018-07-11T04:51:17.031Z,7.30
2018-07-11T04:53:45.073Z,8.70
2018-07-11T04:56:13.069Z,9.40
2018-07-11T04:58:41.060Z,9.20
2018-07-11T05:01:09.066Z,7.80
2018-07-11T05:03:37.053Z,8.27
2018-07-11T05:06:05.182Z,7.37
2018-07-11T05:08:33.209Z,8.30
2018-07-11T05:11:01.221Z,7.67
2018-07-11T05:13:29.210Z,7.40
2018-07-11T05:15:57.316Z,8.43
2018-07-11T05:18:25.444Z,7.70
2018-07-11T05:20:53.377Z,7.70
2018-07-11T05:23:21.453Z,9.33
2018-07-11T05:25:49.473Z,8.40
2018-07-11T05:28:17.502Z,7.77
2018-07-11T05:30:45.521Z,8.57
2018-07-11T05:33:13.491Z,8.33
2018-07-11T05:35:41.478Z,8.63
2018-07-11T05:38:10.461Z,8.90
2018-07-11T05:40:38.452Z,9.20
2018-07-11T05:43:07.226Z,8.73
2018-07-11T05:45:35.253Z,8.20
2018-07-11T05:48:03.235Z,8.30
2018-07-11T05:50:31.231Z,9.30
2018-07-11T05:52:59.224Z,8.47
2018-07-11T05:55:27.203Z,8.60
2018-07-11T05:57:55.197Z,8.77
2018-07-11T06:00:23.329Z,8.50
2018-07-11T06:02:51.309Z,8.17
2018-07-11T06:05:19.305Z,7.83
2018-07-11T06:07:47.389Z,7.90
2018-07-11T06:10:15.373Z,8.10
2018-07-11T06:12:43.775Z,7.33
2018-07-11T06:15:11.836Z,8.00
2018-07-11T06:17:39.844Z,8.60
2018-07-11T06:23:14.635Z,8.93
2018-07-11T06:25:42.792Z,8.67
2018-07-11T06:28:10.805Z,8.27
2018-07-11T06:30:38.866Z,9.60
2018-07-11T06:33:06.881Z,8.40
2018-07-11T06:35:34.937Z,7.60
2018-07-11T06:38:02.921Z,7.60
2018-07-11T06:40:30.943Z,7.20
2018-07-11T06:42:59.538Z,8.30
2018-07-11T06:45:27.658Z,8.53
2018-07-11T06:47:55.690Z,7.50
2018-07-11T06:50:23.701Z,7.40
2018-07-11T06:52:52.172Z,8.13
2018-07-11T06:55:20.365Z,8.10
2018-07-11T06:57:48.354Z,7.90
2018-07-11T07:00:16.340Z,8.87
2018-07-11T07:02:44.415Z,7.90
2018-07-11T07:05:12.404Z,7.20
2018-07-11T07:07:40.451Z,7.53
2018-07-11T07:10:08.468Z,7.40
2018-07-11T07:12:36.457Z,7.17
2018-07-11T07:15:04.508Z,7.47
2018-07-11T07:17:32.495Z,6.20
2018-07-11T07:20:00.816Z,7.60
2018-07-11T07:22:28.877Z,7.23
2018-07-11T07:24:56.856Z,7.37
2018-07-11T07:27:24.868Z,7.63
2018-07-11T07:29:53.331Z,7.73
2018-07-11T07:32:21.340Z,8.40
2018-07-11T07:34:49.372Z,6.67
2018-07-11T07:37:17.404Z,6.87
2018-07-11T07:39:46.397Z,6.70
2018-07-11T07:42:15.000Z,6.20
2018-07-11T07:44:43.012Z,7.17
2018-07-11T07:47:16.485Z,6.83
2018-07-11T07:49:44.480Z,8.23
2018-07-11T07:52:18.143Z,6.93
2018-07-11T07:54:46.193Z,6.70
2018-07-11T07:57:14.941Z,5.77
2018-07-11T07:59:42.974Z,6.60
2018-07-11T08:02:11.814Z,7.00
2018-07-11T08:04:39.793Z,6.97
2018-07-11T08:07:07.794Z,5.50
2018-07-11T08:09:35.817Z,6.70
2018-07-11T08:12:03.819Z,6.50
2018-07-11T08:14:32.806Z,6.23
2018-07-11T08:17:01.826Z,6.70
2018-07-11T08:19:29.948Z,7.17
2018-07-11T08:21:59.849Z,6.87
2018-07-11T08:26:41.888Z,7.00
2018-07-11T08:29:43.363Z,6.63
2018-07-11T08:32:18.781Z,7.70
2018-07-11T08:34:55.208Z,7.50
2018-07-11T08:39:31.846Z,7.60
2018-07-11T08:43:09.257Z,6.77
2018-07-11T08:45:44.577Z,7.03
2018-07-11T08:48:21.964Z,7.63
2018-07-11T08:52:58.089Z,7.53
2018-07-11T08:55:31.625Z,8.20
2018-07-11T08:58:18.971Z,9.20
2018-07-11T09:02:54.183Z,8.63
2018-07-11T09:05:59.422Z,8.00
2018-07-11T09:08:33.976Z,8.80
2018-07-11T09:11:07.539Z,8.30
2018-07-11T09:13:39.997Z,7.90
2018-07-11T09:18:17.607Z,8.83
2018-07-11T09:21:09.574Z,8.20
2018-07-11T09:24:44.822Z,8.10
2018-07-11T09:27:13.081Z,8.00
2018-07-11T09:29:42.592Z,9.30
2018-07-11T09:32:11.396Z,9.83
2018-07-11T09:34:39.472Z,10.00
2018-07-11T09:37:07.611Z,9.67
2018-07-11T09:39:35.647Z,9.40
2018-07-11T09:42:03.798Z,10.93
2018-07-11T09:44:31.968Z,10.10
2018-07-11T09:46:59.995Z,10.40
2018-07-11T09:52:11.224Z,9.60
2018-07-11T09:54:39.172Z,10.50
2018-07-11T09:57:07.178Z,10.23
2018-07-11T09:59:35.213Z,10.60
2018-07-11T10:02:04.180Z,10.60
2018-07-11T10:04:32.166Z,10.80
2018-07-11T10:07:00.231Z,9.70
2018-07-11T10:09:28.326Z,10.23
2018-07-11T10:11:57.991Z,9.97
2018-07-11T10:14:26.125Z,11.20
2018-07-11T10:16:54.141Z,10.67
2018-07-11T10:19:22.135Z,10.80
2018-07-11T10:21:50.844Z,9.80
2018-07-11T10:24:18.849Z,11.60
2018-07-11T10:26:46.861Z,11.33
2018-07-11T10:29:14.918Z,11.53
2018-07-11T10:31:42.921Z,10.47
2018-07-11T10:34:10.923Z,9.47
2018-07-11T10:36:38.935Z,12.43
2018-07-11T10:39:06.971Z,12.50
2018-07-11T10:41:34.961Z,10.37
2018-07-11T10:44:02.990Z,14.30
2018-07-11T10:46:31.883Z,10.70
2018-07-11T10:48:59.875Z,11.40
2018-07-11T10:51:27.904Z,10.57
2018-07-11T10:53:55.900Z,9.67
2018-07-11T10:56:24.024Z,9.93
2018-07-11T10:58:52.092Z,12.70
2018-07-11T11:01:20.155Z,12.90
2018-07-11T11:03:48.145Z,11.97
2018-07-11T11:06:16.185Z,12.70
2018-07-11T11:08:44.221Z,14.17
2018-07-11T11:11:12.232Z,13.73
2018-07-11T11:13:40.264Z,14.10
2018-07-11T11:16:08.273Z,12.03
2018-07-11T11:18:36.283Z,12.67
2018-07-11T11:31:20.508Z,12.07
2018-07-11T11:33:48.536Z,12.40
2018-07-11T11:36:16.564Z,12.20
2018-07-11T11:38:44.588Z,13.90
2018-07-11T11:41:12.610Z,11.50
2018-07-11T11:43:40.632Z,12.00
2018-07-11T11:46:10.013Z,12.50
2018-07-11T11:48:38.103Z,11.60
2018-07-11T11:51:06.161Z,11.40
2018-07-11T11:53:34.209Z,11.20
2018-07-11T11:56:02.338Z,12.30
2018-07-11T11:58:30.349Z,12.33
2018-07-11T12:00:58.396Z,10.90
2018-07-11T12:03:26.444Z,12.23
2018-07-11T12:05:54.462Z,12.10
2018-07-11T12:08:22.480Z,25.17
2018-07-11T12:10:50.509Z,13.97
2018-07-11T12:13:18.547Z,12.43
2018-07-11T12:15:46.572Z,11.80
2018-07-11T12:18:14.576Z,12.23
2018-07-11T12:20:42.592Z,10.60
2018-07-11T12:23:10.607Z,9.23
2018-07-11T12:25:43.068Z,10.50
2018-07-11T12:28:11.100Z,10.53
2018-07-11T12:30:39.144Z,9.80
2018-07-11T12:33:07.120Z,9.10
2018-07-11T12:35:35.166Z,9.60
2018-07-11T12:38:03.150Z,8.17
2018-07-11T12:40:31.124Z,9.10
2018-07-11T12:42:59.677Z,9.00
2018-07-11T12:45:27.657Z,8.17
2018-07-11T12:48:01.258Z,9.07
2018-07-11T12:50:35.870Z,8.90
2018-07-11T12:53:03.953Z,8.43
2018-07-11T12:55:31.941Z,9.50
2018-07-11T12:57:59.932Z,8.00
2018-07-11T13:00:27.973Z,7.60
2018-07-11T13:02:56.007Z,9.90
2018-07-11T13:05:24.226Z,8.00
2018-07-11T13:07:52.470Z,8.20
2018-07-11T13:10:21.174Z,8.23
2018-07-11T13:12:49.184Z,9.03
2018-07-11T13:15:17.212Z,9.23
2018-07-11T13:17:45.225Z,8.77
2018-07-11T13:20:13.835Z,6.93
2018-07-11T13:22:41.905Z,7.50
2018-07-11T13:25:09.905Z,8.00
2018-07-11T13:27:38.065Z,9.40
2018-07-11T13:30:06.105Z,8.43
2018-07-11T13:32:34.136Z,7.10
2018-07-11T13:35:02.175Z,8.03
2018-07-11T13:37:31.208Z,8.30
2018-07-11T13:39:59.204Z,7.30
2018-07-11T13:42:27.214Z,8.30
2018-07-11T13:44:55.280Z,9.20
2018-07-11T13:47:26.439Z,10.07
2018-07-11T13:49:56.503Z,8.80
2018-07-11T13:52:28.903Z,9.20
2018-07-11T13:57:58.944Z,10.50
2018-07-11T14:00:26.997Z,10.60
2018-07-11T14:02:55.092Z,10.67
2018-07-11T14:05:23.095Z,10.30
2018-07-11T14:07:51.255Z,10.10
2018-07-11T14:10:19.720Z,10.47
2018-07-11T14:12:47.730Z,11.10
2018-07-11T14:15:15.739Z,8.20
2018-07-11T14:17:43.758Z,7.97
2018-07-11T14:20:12.089Z,8.70
2018-07-11T14:22:40.108Z,9.10
2018-07-11T14:25:09.177Z,8.93
2018-07-11T14:27:40.235Z,8.50
2018-07-11T14:30:08.494Z,10.80
2018-07-11T14:32:36.970Z,10.43
2018-07-11T14:35:05.041Z,11.20
2018-07-11T14:37:34.699Z,10.17
2018-07-11T14:40:02.735Z,11.33
2018-07-11T14:42:31.752Z,10.37
2018-07-11T14:44:59.752Z,10.63
2018-07-11T14:47:33.357Z,11.30
2018-07-11T14:50:01.402Z,10.93
2018-07-11T14:52:29.428Z,11.00
2018-07-11T14:54:57.492Z,11.07
2018-07-11T14:57:25.516Z,10.50
2018-07-11T14:59:53.558Z,12.30
2018-07-11T15:02:21.581Z,9.73
2018-07-11T15:04:51.097Z,10.47
2018-07-11T15:07:19.280Z,9.83
2018-07-11T15:09:47.391Z,9.87
2018-07-11T15:12:15.441Z,10.63
2018-07-11T15:14:44.507Z,10.70
2018-07-11T15:17:12.614Z,11.27
2018-07-11T15:19:41.214Z,10.97
2018-07-11T15:22:09.304Z,12.23
2018-07-11T15:24:38.197Z,11.73
2018-07-11T15:30:18.662Z,16.50
2018-07-11T15:42:27.630Z,6.47
2018-07-11T15:44:58.801Z,9.10
2018-07-11T15:47:27.807Z,7.20
2018-07-11T15:49:55.989Z,7.07
2018-07-11T15:52:35.757Z,6.80
2018-07-11T15:55:04.256Z,7.23
2018-07-11T15:57:37.516Z,7.00
2018-07-11T16:00:06.733Z,7.20
2018-07-11T16:02:36.868Z,8.30
2018-07-11T16:05:05.242Z,8.27
2018-07-11T16:07:34.357Z,8.07
2018-07-11T16:10:06.313Z,8.60
2018-07-11T16:12:34.338Z,9.43
2018-07-11T16:15:02.352Z,7.87
2018-07-11T16:17:30.383Z,9.73
2018-07-11T16:25:22.305Z,9.50
2018-07-11T16:27:51.119Z,11.27
2018-07-11T16:30:19.352Z,10.53
2018-07-11T16:32:48.409Z,12.80
2018-07-11T16:35:17.305Z,12.20
2018-07-11T16:37:45.311Z,11.37
2018-07-11T16:40:15.534Z,11.10
2018-07-11T16:42:43.566Z,11.70
2018-07-11T16:45:11.608Z,11.43
2018-07-11T16:47:39.611Z,9.90
2018-07-11T16:50:07.632Z,10.30
2018-07-11T16:52:35.648Z,11.27
2018-07-11T16:55:03.647Z,12.67
2018-07-11T16:57:35.951Z,10.73
2018-07-11T17:00:04.956Z,10.20
2018-07-11T17:02:32.957Z,10.50
2018-07-11T17:05:03.561Z,11.17
2018-07-11T17:07:31.596Z,11.77
2018-07-11T17:10:01.534Z,12.03
2018-07-11T17:12:29.560Z,11.33
2018-07-11T17:14:57.935Z,12.00
2018-07-11T17:17:27.871Z,12.90
2018-07-11T17:19:57.746Z,10.90
2018-07-11T17:22:26.816Z,11.90
2018-07-11T17:24:54.857Z,11.23
2018-07-11T17:27:23.393Z,11.10
2018-07-11T17:29:51.446Z,10.40
2018-07-11T17:32:20.764Z,10.80
2018-07-11T17:34:48.789Z,11.77
2018-07-11T17:37:18.171Z,10.47
2018-07-11T17:39:48.645Z,9.50
2018-07-11T17:42:17.185Z,9.90
2018-07-11T17:44:47.719Z,10.63
2018-07-11T17:47:15.747Z,9.83
2018-07-11T17:49:46.621Z,11.47
2018-07-11T17:52:14.630Z,11.03
2018-07-11T17:54:58.137Z,14.80
2018-07-11T18:00:26.796Z,10.93
2018-07-11T18:02:58.230Z,10.10
2018-07-11T18:05:28.947Z,10.60
2018-07-11T18:08:01.416Z,11.37
2018-07-11T18:10:33.092Z,11.67
2018-07-11T18:13:07.790Z,10.10
2018-07-11T18:15:39.037Z,12.40
2018-07-11T18:18:13.190Z,12.17
2018-07-11T18:20:47.466Z,11.77
2018-07-11T18:23:28.653Z,10.83
2018-07-11T18:26:06.500Z,12.27
2018-07-11T18:28:41.431Z,11.60
2018-07-11T18:31:14.646Z,9.60
2018-07-11T18:33:52.417Z,9.50
2018-07-11T18:36:27.097Z,10.70
2018-07-11T18:51:51.808Z,11.17
2018-07-11T18:54:55.349Z,10.97
2018-07-11T18:59:33.571Z,10.87
2018-07-11T19:02:06.539Z,11.53
2018-07-11T19:04:39.207Z,11.33
2018-07-11T19:07:10.122Z,10.57
2018-07-11T19:09:42.425Z,11.33
2018-07-11T19:12:13.237Z,10.60
2018-07-11T19:14:45.697Z,11.80
2018-07-11T19:17:17.701Z,9.60
2018-07-11T19:20:24.174Z,9.60
2018-07-11T19:22:59.709Z,9.80
2018-07-11T19:25:35.948Z,9.00
2018-07-11T19:28:09.412Z,8.33
2018-07-11T19:31:46.855Z,9.47
2018-07-11T19:34:15.629Z,9.30
2018-07-11T19:36:47.457Z,9.50
2018-07-11T19:39:18.259Z,9.27
2018-07-11T19:41:51.211Z,8.93
2018-07-11T19:44:27.606Z,9.50
2018-07-11T19:47:29.977Z,9.27
2018-07-11T19:50:11.840Z,9.27
2018-07-11T19:52:44.318Z,7.60
2018-07-11T19:55:23.216Z,9.40
2018-07-11T19:57:51.760Z,9.10
2018-07-11T20:00:20.855Z,9.30
2018-07-11T20:02:48.948Z,9.27
2018-07-11T20:05:17.575Z,8.50
2018-07-11T20:07:45.626Z,14.43
2018-07-11T20:10:13.658Z,8.37
2018-07-11T20:12:41.764Z,8.93
2018-07-11T20:15:10.099Z,8.60
2018-07-11T20:17:38.144Z,23.60
2018-07-11T20:20:07.780Z,15.00
2018-07-11T20:22:36.233Z,11.00
2018-07-11T20:25:04.472Z,10.50
2018-07-11T20:27:32.581Z,10.13
2018-07-11T20:30:00.750Z,8.50
2018-07-11T20:32:28.783Z,7.80
2018-07-11T20:34:57.532Z,8.97
2018-07-11T20:37:25.570Z,12.00
2018-07-11T20:39:53.595Z,8.40
2018-07-11T20:42:21.622Z,16.33
2018-07-11T20:44:49.826Z,9.00
2018-07-11T20:47:17.861Z,8.73
2018-07-11T20:49:46.511Z,8.80
2018-07-11T20:52:15.531Z,7.67
2018-07-11T20:54:44.007Z,8.57
2018-07-11T20:57:12.056Z,8.40
2018-07-11T20:59:45.622Z,7.40
2018-07-11T21:02:19.335Z,7.17
2018-07-11T21:05:53.235Z,7.40
2018-07-11T21:08:27.003Z,8.33
2018-07-11T21:10:56.830Z,7.90
2018-07-11T21:13:30.406Z,8.03
2018-07-11T21:16:02.997Z,8.23
2018-07-11T21:19:09.451Z,7.50
2018-07-11T21:21:38.693Z,12.93
2018-07-11T21:24:07.774Z,11.43
2018-07-11T21:26:36.728Z,10.70
2018-07-11T21:29:07.895Z,12.20
2018-07-11T21:31:36.249Z,9.53
2018-07-11T21:34:04.269Z,8.40
2018-07-11T21:36:32.402Z,8.77
2018-07-11T21:39:00.490Z,9.40
2018-07-11T21:41:28.509Z,10.97
2018-07-11T21:43:56.524Z,13.60
2018-07-11T21:46:24.965Z,16.60
2018-07-11T21:48:53.185Z,13.37
2018-07-11T21:51:21.990Z,13.67
2018-07-11T21:53:50.023Z,12.47
2018-07-11T21:56:20.850Z,15.20
2018-07-11T21:58:49.004Z,12.70
2018-07-11T22:01:17.893Z,15.27
2018-07-11T22:03:45.925Z,13.20
2018-07-11T22:06:13.971Z,16.00
2018-07-11T22:08:42.031Z,12.87
2018-07-11T22:11:10.035Z,13.57
2018-07-11T22:13:38.284Z,17.50
2018-07-11T22:16:06.822Z,11.57
2018-07-11T22:18:36.413Z,11.80
2018-07-11T22:21:05.152Z,11.20
2018-07-11T22:23:33.246Z,14.53
2018-07-11T22:26:01.012Z,15.00
2018-07-11T22:28:28.527Z,12.40
2018-07-11T22:30:56.080Z,11.83
2018-07-11T22:33:24.725Z,11.33
2018-07-11T22:35:52.810Z,10.00
2018-07-11T22:38:20.581Z,11.67
2018-07-11T22:40:49.093Z,10.90
2018-07-11T22:43:16.885Z,10.27
2018-07-11T22:45:45.273Z,10.83
2018-07-11T22:51:19.997Z,13.90
2018-07-11T23:03:28.253Z,12.43
2018-07-11T23:05:55.937Z,11.30
2018-07-11T23:08:23.755Z,11.40
2018-07-11T23:10:51.297Z,14.40
2018-07-11T23:13:18.830Z,11.53
2018-07-11T23:15:46.350Z,9.93
2018-07-11T23:18:13.961Z,11.93
2018-07-11T23:20:41.473Z,13.43
2018-07-11T23:23:08.994Z,20.97
2018-07-11T23:25:36.747Z,12.20
2018-07-11T23:28:04.244Z,11.37
2018-07-11T23:30:31.750Z,13.30
2018-07-11T23:32:59.310Z,11.70
2018-07-11T23:35:26.822Z,12.23
2018-07-11T23:37:54.349Z,12.07
2018-07-11T23:40:21.991Z,11.90
2018-07-11T23:42:49.507Z,11.40
2018-07-11T23:45:17.061Z,12.70
2018-07-11T23:47:44.571Z,11.77
2018-07-11T23:50:12.088Z,11.83
2018-07-11T23:52:39.609Z,12.57
2018-07-11T23:55:07.124Z,12.13
2018-07-11T23:57:34.660Z,12.73
